Time;durP1;ratioP1;P1;durP2;ratioP2;P2;SDS_P1;SDS_P2;PMS_P1;PMS_P2;Temp;Humidity;BMP_temperature;BMP_pressure;BME280_temperature;BME280_humidity;BME280_pressure;Samples;Min_cycle;Max_cycle;Signal;HPM_P1;HPM_P2
2023/08/10 00:00:32;;;;;;;3.42;1.60;;;13.00;1.00;;;;;;5021889;28;20183;-80
2023/08/10 00:02:58;;;;;;;3.58;1.92;;;12.90;1.00;;;;;;5021840;28;20221;-80
2023/08/10 00:05:24;;;;;;;3.50;1.90;;;12.80;1.00;;;;;;5039206;28;20213;-80
2023/08/10 00:07:50;;;;;;;2.10;1.90;;;13.20;1.00;;;;;;5020455;28;20217;-80
2023/08/10 00:10:17;;;;;;;2.42;2.00;;;13.40;1.00;;;;;;5039004;28;20214;-79
2023/08/10 00:12:42;;;;;;;1.65;1.55;;;13.30;99.90;;;;;;5039532;28;20189;-80
2023/08/10 00:15:08;;;;;;;1.98;1.65;;;13.60;99.90;;;;;;5039404;28;20187;-79
2023/08/10 00:17:34;;;;;;;2.10;1.77;;;13.60;99.90;;;;;;5038608;28;20284;-80
2023/08/10 00:20:00;;;;;;;3.08;1.70;;;13.90;99.90;;;;;;5038515;28;20199;-81
2023/08/10 00:22:26;;;;;;;2.13;1.80;;;14.60;99.90;;;;;;5039333;28;20199;-80
2023/08/10 00:24:51;;;;;;;1.95;1.50;;;14.40;99.90;;;;;;5039021;28;20167;-82
2023/08/10 00:27:17;;;;;;;1.73;1.63;;;13.70;99.90;;;;;;5020995;28;20195;-81
2023/08/10 00:29:44;;;;;;;2.17;1.70;;;13.70;99.90;;;;;;5038555;28;20179;-80
2023/08/10 00:32:09;;;;;;;1.90;1.40;;;13.70;99.90;;;;;;5038224;28;20175;-80
2023/08/10 00:34:35;;;;;;;1.98;1.50;;;13.80;99.90;;;;;;5020627;28;20270;-80
2023/08/10 00:37:00;;;;;;;2.20;1.70;;;13.30;99.90;;;;;;5020263;28;20555;-81
2023/08/10 00:39:26;;;;;;;2.97;2.00;;;13.50;1.00;;;;;;5021141;28;20228;-80
2023/08/10 00:41:53;;;;;;;3.72;1.70;;;13.60;1.00;;;;;;5021278;28;20215;-81
2023/08/10 00:44:19;;;;;;;3.75;1.80;;;12.90;1.00;;;;;;5020363;28;20242;-80
2023/08/10 00:46:45;;;;;;;3.50;1.67;;;13.10;1.00;;;;;;5038674;28;20678;-80
2023/08/10 00:49:11;;;;;;;1.98;1.80;;;13.10;1.00;;;;;;5038782;28;20637;-81
2023/08/10 00:51:37;;;;;;;3.03;1.65;;;13.40;1.00;;;;;;5038592;28;20201;-81
2023/08/10 00:54:05;;;;;;;3.38;1.63;;;13.30;1.00;;;;;;5020443;28;20178;-80
2023/08/10 00:56:30;;;;;;;2.38;1.67;;;13.00;1.00;;;;;;5019795;28;20199;-81
2023/08/10 00:58:56;;;;;;;3.53;2.00;;;13.40;1.00;;;;;;5021034;28;20241;-79
2023/08/10 01:01:22;;;;;;;1.80;1.67;;;12.80;1.00;;;;;;5020643;28;20592;-79
2023/08/10 01:03:48;;;;;;;2.33;1.60;;;12.80;1.00;;;;;;5038815;28;20185;-79
2023/08/10 01:06:46;;;;;;;2.65;1.70;;;12.80;1.00;;;;;;5035258;28;20182;-80
2023/08/10 01:09:34;;;;;;;3.20;1.77;;;10.20;1.00;;;;;;5019824;28;20237;-81
2023/08/10 01:12:23;;;;;;;2.40;1.70;;;12.60;21.40;;;;;;5037893;28;20617;-80
2023/08/10 01:15:18;;;;;;;2.10;1.70;;;12.60;1.00;;;;;;5037851;28;20551;-80
2023/08/10 01:17:51;;;;;;;1.95;1.83;;;12.60;28.40;;;;;;5037729;28;20218;-80
2023/08/10 01:20:19;;;;;;;2.50;1.92;;;13.10;90.80;;;;;;5019826;28;20175;-81
2023/08/10 01:22:54;;;;;;;2.45;1.60;;;12.60;39.80;;;;;;5037724;28;20205;-79
2023/08/10 01:25:21;;;;;;;2.25;1.98;;;12.60;1.00;;;;;;5019322;28;20179;-80
2023/08/10 01:27:47;;;;;;;3.60;1.88;;;12.50;45.00;;;;;;5038037;28;20194;-79
2023/08/10 01:30:13;;;;;;;2.28;1.85;;;12.90;89.30;;;;;;5037658;28;20221;-80
2023/08/10 01:32:39;;;;;;;2.25;1.55;;;12.90;99.60;;;;;;5019459;28;20278;-80
2023/08/10 01:35:05;;;;;;;3.20;2.10;;;13.00;99.90;;;;;;5018119;28;20636;-80
2023/08/10 01:37:33;;;;;;;2.03;1.60;;;12.20;99.90;;;;;;5037315;28;20198;-80
2023/08/10 01:39:59;;;;;;;2.25;1.75;;;12.20;99.90;;;;;;5037598;28;20229;-81
2023/08/10 01:42:24;;;;;;;3.15;1.88;;;12.40;99.90;;;;;;5037332;28;20289;-80
2023/08/10 01:44:50;;;;;;;2.22;1.55;;;12.90;99.90;;;;;;5036136;28;20222;-80
2023/08/10 01:47:25;;;;;;;1.77;1.58;;;12.50;1.00;;;;;;5018504;28;20203;-80
2023/08/10 01:49:55;;;;;;;2.15;1.60;;;12.70;1.00;;;;;;5037301;28;20159;-80
2023/08/10 01:52:25;;;;;;;2.25;1.45;;;12.60;1.00;;;;;;5035593;28;20171;-81
2023/08/10 01:54:51;;;;;;;1.70;1.60;;;12.30;92.90;;;;;;5018523;28;20657;-80
2023/08/10 01:57:17;;;;;;;1.88;1.67;;;12.20;99.90;;;;;;5018141;28;20218;-80
2023/08/10 01:59:43;;;;;;;2.83;1.73;;;12.50;99.90;;;;;;5036765;28;20262;-80
2023/08/10 02:02:09;;;;;;;2.45;1.67;;;12.00;99.90;;;;;;5018815;28;20238;-80
2023/08/10 02:04:34;;;;;;;4.30;1.75;;;12.40;99.90;;;;;;5037379;28;20639;-80
2023/08/10 02:07:01;;;;;;;2.53;1.90;;;12.00;57.90;;;;;;5017837;28;20205;-80
2023/08/10 02:09:26;;;;;;;2.08;1.60;;;12.50;1.00;;;;;;5019104;28;20191;-79
2023/08/10 02:11:52;;;;;;;2.75;1.90;;;12.30;1.00;;;;;;5018613;28;20613;-80
2023/08/10 02:14:18;;;;;;;1.77;1.60;;;12.30;1.00;;;;;;5018247;28;20179;-80
2023/08/10 02:16:44;;;;;;;1.70;1.60;;;12.10;1.00;;;;;;5036207;28;20194;-81
2023/08/10 02:19:10;;;;;;;2.65;1.77;;;12.10;93.20;;;;;;5036407;28;20178;-80
2023/08/10 02:21:36;;;;;;;2.70;1.60;;;11.90;15.20;;;;;;5036065;28;20209;-81
2023/08/10 02:24:01;;;;;;;2.17;1.58;;;12.10;32.80;;;;;;5036812;28;20175;-80
2023/08/10 02:26:27;;;;;;;1.77;1.65;;;12.20;1.00;;;;;;5017821;28;20587;-80
2023/08/10 02:28:52;;;;;;;2.35;1.88;;;12.60;1.00;;;;;;5018117;28;20613;-80
2023/08/10 02:31:18;;;;;;;1.70;1.60;;;12.20;1.00;;;;;;5037012;28;20187;-80
2023/08/10 02:33:43;;;;;;;2.70;1.90;;;12.20;1.00;;;;;;5039638;28;20550;-80
2023/08/10 02:36:09;;;;;;;2.53;1.58;;;11.70;99.90;;;;;;5039250;28;20369;-79
2023/08/10 02:38:35;;;;;;;2.67;1.75;;;11.80;1.00;;;;;;5020941;28;20194;-80
2023/08/10 02:41:00;;;;;;;2.38;1.70;;;12.40;11.40;;;;;;5038606;28;20175;-81
2023/08/10 02:43:26;;;;;;;1.83;1.70;;;12.00;1.00;;;;;;5038453;28;20182;-80
2023/08/10 02:45:52;;;;;;;3.15;1.70;;;12.30;72.20;;;;;;5038352;28;20262;-81
2023/08/10 02:48:18;;;;;;;2.08;1.85;;;12.20;1.00;;;;;;5038053;28;20214;-80
2023/08/10 02:50:43;;;;;;;3.17;1.83;;;12.20;1.00;;;;;;5038692;28;20175;-80
2023/08/10 02:53:09;;;;;;;1.98;1.77;;;13.30;1.00;;;;;;5019971;28;20567;-80
2023/08/10 02:55:34;;;;;;;2.22;1.75;;;13.20;1.00;;;;;;5037907;28;20179;-80
2023/08/10 02:58:00;;;;;;;2.15;1.50;;;12.20;1.00;;;;;;5036875;28;20668;-80
2023/08/10 03:00:26;;;;;;;2.40;1.67;;;12.10;1.00;;;;;;5019442;28;20187;-80
2023/08/10 03:02:52;;;;;;;2.85;1.70;;;12.20;1.00;;;;;;5037029;28;20288;-80
2023/08/10 03:05:20;;;;;;;2.67;1.45;;;12.20;1.00;;;;;;5018839;28;20187;-80
2023/08/10 03:07:46;;;;;;;1.52;1.35;;;12.50;1.00;;;;;;5018873;28;20203;-82
2023/08/10 03:10:12;;;;;;;2.33;1.52;;;13.20;1.00;;;;;;5036280;28;20649;-80
2023/08/10 03:12:38;;;;;;;3.70;1.60;;;12.50;1.00;;;;;;5018665;28;20262;-80
2023/08/10 03:15:08;;;;;;;2.63;1.80;;;13.00;1.00;;;;;;5036146;28;20187;-80
2023/08/10 03:17:34;;;;;;;4.30;1.70;;;12.60;1.00;;;;;;5035946;28;20198;-80
2023/08/10 03:19:59;;;;;;;2.35;1.60;;;12.90;1.00;;;;;;5017929;28;20546;-81
2023/08/10 03:22:27;;;;;;;3.28;1.73;;;12.50;1.00;;;;;;5035798;28;20237;-80
2023/08/10 03:24:53;;;;;;;1.77;1.48;;;12.40;1.00;;;;;;5017253;28;20194;-81
2023/08/10 03:27:19;;;;;;;3.10;1.90;;;13.10;1.00;;;;;;5017198;28;20221;-81
2023/08/10 03:29:44;;;;;;;3.25;1.60;;;12.40;1.00;;;;;;5016975;28;20661;-81
2023/08/10 03:32:10;;;;;;;2.05;1.85;;;12.40;1.00;;;;;;5034594;28;20559;-81
2023/08/10 03:34:36;;;;;;;2.22;1.50;;;12.30;1.00;;;;;;5017147;28;20643;-79
2023/08/10 03:37:03;;;;;;;2.00;1.55;;;12.90;1.00;;;;;;5034296;28;20248;-80
2023/08/10 03:39:28;;;;;;;1.98;1.60;;;12.60;1.00;;;;;;5016634;28;20184;-80
2023/08/10 03:41:54;;;;;;;2.20;1.50;;;12.90;1.00;;;;;;5033996;28;20598;-81
2023/08/10 03:44:19;;;;;;;2.75;1.63;;;12.00;1.00;;;;;;5034035;28;20543;-81
2023/08/10 03:46:45;;;;;;;2.67;1.55;;;12.30;1.00;;;;;;5034933;28;20191;-79
2023/08/10 03:49:11;;;;;;;2.22;1.70;;;12.40;1.00;;;;;;5036769;28;20179;-80
2023/08/10 03:51:36;;;;;;;4.38;1.55;;;12.40;1.00;;;;;;5019081;28;20178;-79
2023/08/10 03:54:02;;;;;;;3.65;1.63;;;12.70;1.00;;;;;;5036557;28;20695;-80
2023/08/10 03:56:28;;;;;;;2.33;1.50;;;12.70;1.00;;;;;;5035169;28;20172;-80
2023/08/10 03:58:53;;;;;;;2.50;1.65;;;12.90;1.00;;;;;;5036300;28;20191;-79
2023/08/10 04:01:19;;;;;;;2.58;1.48;;;12.80;1.00;;;;;;5018229;28;20243;-79
2023/08/10 04:03:44;;;;;;;2.30;2.10;;;13.30;1.00;;;;;;5036955;28;20171;-80
2023/08/10 04:06:10;;;;;;;3.30;1.92;;;12.80;1.00;;;;;;5035915;28;20179;-82
2023/08/10 04:08:36;;;;;;;3.50;1.95;;;13.50;1.00;;;;;;5036276;28;20288;-80
2023/08/10 04:11:01;;;;;;;4.20;1.88;;;12.60;1.00;;;;;;5036117;28;20171;-80
2023/08/10 04:13:27;;;;;;;3.97;2.80;;;12.90;1.00;;;;;;5036603;28;20189;-80
2023/08/10 04:15:53;;;;;;;2.30;2.08;;;12.70;1.00;;;;;;5036124;28;20171;-80
2023/08/10 04:18:18;;;;;;;3.35;2.38;;;12.90;1.00;;;;;;5018076;28;20289;-79
2023/08/10 04:20:45;;;;;;;6.05;2.83;;;13.00;1.00;;;;;;5034248;28;20167;-80
2023/08/10 04:23:10;;;;;;;3.67;2.58;;;12.70;1.00;;;;;;5016806;28;20208;-80
2023/08/10 04:25:36;;;;;;;2.78;1.95;;;13.20;1.00;;;;;;5035496;28;20254;-79
2023/08/10 04:28:02;;;;;;;4.35;2.55;;;13.10;1.00;;;;;;5036131;28;20225;-80
2023/08/10 04:30:29;;;;;;;3.67;2.47;;;13.00;1.00;;;;;;5035607;28;20175;-80
2023/08/10 04:32:58;;;;;;;3.83;2.40;;;13.00;1.00;;;;;;5017417;28;20265;-79
2023/08/10 04:35:23;;;;;;;4.05;2.50;;;12.90;1.00;;;;;;5034619;28;20174;-80
2023/08/10 04:37:52;;;;;;;3.88;2.55;;;12.80;1.00;;;;;;5017326;28;20691;-79
2023/08/10 04:40:18;;;;;;;2.20;2.00;;;12.90;1.00;;;;;;5017607;28;20211;-80
2023/08/10 04:42:44;;;;;;;3.15;1.90;;;13.60;1.00;;;;;;5035064;28;20191;-79
2023/08/10 04:45:09;;;;;;;2.13;1.90;;;12.60;1.00;;;;;;5035259;28;20185;-80
2023/08/10 04:47:35;;;;;;;2.45;1.98;;;12.50;8.80;;;;;;5017348;28;20241;-80
2023/08/10 04:50:03;;;;;;;2.85;2.30;;;12.90;1.00;;;;;;5035648;28;20183;-81
2023/08/10 04:52:28;;;;;;;2.60;2.00;;;12.80;1.00;;;;;;5035465;28;20548;-80
2023/08/10 04:54:54;;;;;;;2.88;2.22;;;13.40;49.40;;;;;;5016659;28;20171;-80
2023/08/10 04:57:20;;;;;;;2.58;1.85;;;12.80;1.00;;;;;;5035285;28;20274;-82
2023/08/10 04:59:46;;;;;;;5.60;2.05;;;13.80;1.00;;;;;;5017604;28;20298;-80
2023/08/10 05:02:13;;;;;;;3.78;2.30;;;12.70;1.00;;;;;;5034703;28;20692;-80
2023/08/10 05:04:38;;;;;;;2.30;2.10;;;12.80;9.80;;;;;;5035148;28;20199;-80
2023/08/10 05:07:04;;;;;;;3.35;2.00;;;13.00;1.00;;;;;;5034889;28;20191;-80
2023/08/10 05:09:30;;;;;;;2.63;2.13;;;13.00;1.00;;;;;;5034996;28;20269;-80
2023/08/10 05:11:55;;;;;;;2.88;2.10;;;13.20;1.00;;;;;;5036052;28;20232;-81
2023/08/10 05:14:21;;;;;;;3.03;2.40;;;13.80;1.00;;;;;;5035190;28;20202;-80
2023/08/10 05:16:46;;;;;;;3.15;1.98;;;14.20;1.00;;;;;;5034564;28;20198;-80
2023/08/10 05:19:12;;;;;;;3.97;2.20;;;14.30;1.00;;;;;;5034969;28;20544;-79
2023/08/10 05:21:38;;;;;;;2.67;1.95;;;14.40;1.00;;;;;;5034832;28;20267;-79
2023/08/10 05:24:04;;;;;;;2.35;1.90;;;14.50;1.00;;;;;;5017266;28;20170;-79
2023/08/10 05:26:29;;;;;;;5.55;1.95;;;14.70;99.90;;;;;;5016359;28;20195;-80
2023/08/10 05:28:55;;;;;;;3.00;1.60;;;15.70;99.90;;;;;;5034848;28;20171;-80
2023/08/10 05:31:21;;;;;;;2.40;1.60;;;17.00;99.90;;;;;;5034514;28;20629;-82
2023/08/10 05:33:46;;;;;;;2.88;1.65;;;17.30;83.40;;;;;;5015754;28;20265;-80
2023/08/10 05:36:12;;;;;;;2.38;1.70;;;16.90;67.90;;;;;;5015307;28;20262;-80
2023/08/10 05:38:39;;;;;;;1.90;1.63;;;16.60;40.30;;;;;;5016521;28;20179;-80
2023/08/10 05:41:05;;;;;;;3.38;1.60;;;16.20;93.80;;;;;;5016578;28;20629;-82
2023/08/10 05:43:30;;;;;;;2.42;1.60;;;16.30;99.90;;;;;;5034180;28;20190;-81
2023/08/10 05:45:56;;;;;;;3.88;1.80;;;15.80;99.90;;;;;;5034031;28;20173;-80
2023/08/10 05:48:22;;;;;;;4.03;2.45;;;15.30;99.90;;;;;;5034209;28;20684;-80
2023/08/10 05:50:48;;;;;;;3.42;2.03;;;15.10;99.90;;;;;;5034398;28;20174;-80
2023/08/10 05:53:14;;;;;;;5.10;2.38;;;15.00;99.90;;;;;;5025288;28;20864;-82
2023/08/10 05:55:41;;;;;;;5.43;3.58;;;15.10;99.90;;;;;;5036728;28;20182;-82
2023/08/10 05:58:06;;;;;;;4.78;2.90;;;15.20;99.90;;;;;;5052676;28;20906;-81
2023/08/10 06:00:32;;;;;;;4.35;2.78;;;15.20;99.90;;;;;;5004934;28;20194;-80
2023/08/10 06:02:58;;;;;;;4.18;3.05;;;14.40;99.90;;;;;;5036005;28;20261;-80
2023/08/10 06:05:23;;;;;;;5.68;3.30;;;15.40;99.90;;;;;;5037144;28;20167;-83
2023/08/10 06:07:49;;;;;;;5.07;2.88;;;15.70;99.90;;;;;;5018102;28;20700;-80
2023/08/10 06:10:18;;;;;;;4.10;2.70;;;16.10;99.90;;;;;;5037907;28;20282;-81
2023/08/10 06:12:44;;;;;;;6.00;3.20;;;16.30;99.90;;;;;;5023092;28;20203;-82
2023/08/10 06:15:10;;;;;;;4.28;2.60;;;16.20;99.90;;;;;;5022169;28;20536;-82
2023/08/10 06:17:40;;;;;;;7.57;3.20;;;15.90;99.90;;;;;;5047461;28;20202;-80
2023/08/10 06:20:16;;;;;;;4.57;3.10;;;15.80;99.90;;;;;;5019603;28;20187;-81
2023/08/10 06:22:43;;;;;;;7.85;3.22;;;15.70;99.90;;;;;;5021355;28;20222;-81
2023/08/10 06:25:09;;;;;;;4.72;3.08;;;15.70;99.90;;;;;;5053924;28;20643;-81
2023/08/10 06:27:35;;;;;;;6.40;2.85;;;16.20;99.90;;;;;;5042031;28;20343;-81
2023/08/10 06:30:03;;;;;;;4.78;3.05;;;16.50;99.90;;;;;;5059537;28;20249;-82
2023/08/10 06:32:29;;;;;;;7.55;2.95;;;16.50;99.90;;;;;;5059662;28;20185;-81
2023/08/10 06:34:55;;;;;;;5.55;3.03;;;16.60;99.90;;;;;;5032788;28;20187;-80
2023/08/10 06:37:20;;;;;;;7.47;3.40;;;16.40;99.90;;;;;;5021874;28;20252;-79
2023/08/10 06:39:49;;;;;;;7.00;2.80;;;16.50;99.90;;;;;;5039248;28;20179;-80
2023/08/10 06:42:17;;;;;;;5.05;2.80;;;17.10;99.90;;;;;;5038250;28;20201;-79
2023/08/10 06:44:43;;;;;;;7.65;3.25;;;17.70;99.90;;;;;;5037991;28;20175;-79
2023/08/10 06:47:10;;;;;;;4.10;2.70;;;18.70;20.20;;;;;;5037454;28;20281;-79
2023/08/10 06:49:36;;;;;;;8.13;3.05;;;19.80;1.00;;;;;;5038449;28;20168;-83
2023/08/10 06:52:03;;;;;;;5.15;2.33;;;20.60;1.00;;;;;;5019140;28;20174;-81
2023/08/10 06:54:29;;;;;;;6.68;2.70;;;21.20;1.00;;;;;;5019453;28;20178;-80
2023/08/10 06:56:55;;;;;;;4.82;2.20;;;20.90;1.00;;;;;;5037412;28;20198;-80
2023/08/10 06:59:21;;;;;;;5.55;2.72;;;20.40;1.00;;;;;;5039512;28;20189;-81
2023/08/10 07:01:47;;;;;;;4.38;2.10;;;20.00;1.00;;;;;;5020750;28;20207;-81
2023/08/10 07:04:12;;;;;;;5.20;2.38;;;20.00;1.00;;;;;;5038275;28;20239;-80
2023/08/10 07:06:38;;;;;;;6.00;2.42;;;20.50;1.00;;;;;;5027880;28;20197;-81
2023/08/10 07:09:04;;;;;;;2.55;1.85;;;20.40;1.00;;;;;;5057623;28;20231;-80
2023/08/10 07:11:30;;;;;;;3.47;1.80;;;21.60;1.00;;;;;;5039290;28;20560;-81
2023/08/10 07:13:56;;;;;;;3.53;1.92;;;22.90;1.00;;;;;;5038758;28;20658;-80
2023/08/10 07:16:23;;;;;;;3.45;1.75;;;24.00;1.00;;;;;;5027117;28;20242;-80
2023/08/10 07:18:49;;;;;;;4.65;1.77;;;24.90;1.00;;;;;;5034994;28;20186;-81
2023/08/10 07:21:14;;;;;;;5.25;1.92;;;25.70;1.00;;;;;;5020704;28;20174;-81
2023/08/10 07:23:40;;;;;;;4.85;1.85;;;25.10;1.00;;;;;;5040188;28;20183;-81
2023/08/10 07:26:06;;;;;;;4.57;1.33;;;23.70;1.00;;;;;;5047897;28;20210;-82
2023/08/10 07:28:32;;;;;;;3.58;1.60;;;22.50;1.00;;;;;;5040241;28;20195;-82
2023/08/10 07:31:00;;;;;;;4.13;1.63;;;21.70;1.00;;;;;;5038770;28;20233;-83
2023/08/10 07:33:25;;;;;;;4.03;1.60;;;21.00;1.00;;;;;;5040045;28;20204;-80
2023/08/10 07:35:51;;;;;;;3.85;1.70;;;19.60;1.00;;;;;;5031778;28;20585;-83
2023/08/10 07:38:17;;;;;;;4.00;1.92;;;19.30;1.00;;;;;;5041775;28;20203;-83
2023/08/10 07:40:43;;;;;;;4.70;1.65;;;19.20;1.00;;;;;;5042180;28;20664;-81
2023/08/10 07:43:09;;;;;;;4.47;1.63;;;18.70;1.00;;;;;;5041696;28;20198;-82
2023/08/10 07:45:35;;;;;;;4.85;1.63;;;18.70;1.00;;;;;;5058808;28;20177;-81
2023/08/10 07:48:00;;;;;;;3.15;1.60;;;18.80;1.00;;;;;;5059038;28;20225;-82
2023/08/10 07:50:27;;;;;;;4.03;1.52;;;18.70;1.00;;;;;;5022002;28;20241;-81
2023/08/10 07:52:52;;;;;;;5.15;2.00;;;18.30;1.00;;;;;;5035587;28;20171;-80
2023/08/10 07:55:18;;;;;;;4.20;1.90;;;18.20;1.00;;;;;;5034308;28;20616;-80
2023/08/10 07:57:44;;;;;;;6.30;1.40;;;18.20;1.00;;;;;;5033876;28;20221;-80
2023/08/10 08:00:10;;;;;;;5.43;1.63;;;18.40;1.00;;;;;;5016557;28;20245;-80
2023/08/10 08:02:37;;;;;;;6.80;1.67;;;18.30;1.00;;;;;;5016184;28;20231;-81
2023/08/10 08:05:03;;;;;;;6.90;1.63;;;18.10;1.00;;;;;;5015957;28;20214;-80
2023/08/10 08:07:32;;;;;;;4.45;1.65;;;18.30;1.00;;;;;;5034693;28;20326;-81
2023/08/10 08:09:58;;;;;;;5.03;1.52;;;18.60;1.00;;;;;;5036064;28;20187;-80
2023/08/10 08:12:27;;;;;;;4.35;1.63;;;18.90;1.00;;;;;;5017981;28;20186;-80
2023/08/10 08:14:54;;;;;;;4.25;1.45;;;19.10;1.00;;;;;;5017732;28;20201;-81
2023/08/10 08:17:20;;;;;;;4.20;1.50;;;19.20;1.00;;;;;;5035412;28;20667;-80
2023/08/10 08:19:46;;;;;;;4.03;1.42;;;19.40;1.00;;;;;;5018155;28;20182;-81
2023/08/10 08:22:11;;;;;;;4.82;1.83;;;19.50;1.00;;;;;;5035393;28;20268;-81
2023/08/10 08:24:37;;;;;;;4.78;1.35;;;19.70;1.00;;;;;;5035385;28;20175;-81
2023/08/10 08:27:03;;;;;;;3.88;1.70;;;19.80;1.00;;;;;;5017675;28;20631;-80
2023/08/10 08:29:30;;;;;;;2.75;1.58;;;19.70;1.00;;;;;;5034527;28;20167;-81
2023/08/10 08:31:56;;;;;;;4.28;1.60;;;19.60;1.00;;;;;;5042291;28;20246;-82
2023/08/10 08:34:21;;;;;;;3.83;1.75;;;19.70;1.00;;;;;;5059082;28;20205;-81
2023/08/10 08:36:47;;;;;;;5.68;2.05;;;19.50;1.00;;;;;;5036930;28;20344;-82
2023/08/10 08:39:13;;;;;;;6.18;1.90;;;19.10;1.00;;;;;;5027252;28;20190;-81
2023/08/10 08:41:39;;;;;;;6.32;2.17;;;19.20;1.00;;;;;;5027728;28;20199;-81
2023/08/10 08:44:06;;;;;;;4.40;1.92;;;19.20;1.00;;;;;;5037886;28;20190;-79
2023/08/10 08:46:33;;;;;;;4.13;1.98;;;18.90;1.00;;;;;;5033861;28;20684;-80
2023/08/10 08:49:01;;;;;;;5.65;1.83;;;19.30;1.00;;;;;;5016840;28;20229;-80
2023/08/10 08:51:27;;;;;;;4.43;1.92;;;19.20;1.00;;;;;;5032940;28;20174;-80
2023/08/10 08:53:54;;;;;;;3.63;1.80;;;19.20;1.00;;;;;;5015349;28;20557;-80
2023/08/10 08:56:20;;;;;;;4.50;1.98;;;18.70;1.00;;;;;;5033142;28;20548;-80
2023/08/10 08:58:45;;;;;;;3.95;1.98;;;18.60;1.00;;;;;;5033941;28;20171;-82
2023/08/10 09:01:13;;;;;;;7.43;2.60;;;18.70;1.00;;;;;;5028191;28;20209;-80
2023/08/10 09:03:39;;;;;;;4.55;2.00;;;18.90;1.00;;;;;;5020934;28;20258;-82
2023/08/10 09:06:05;;;;;;;4.30;2.10;;;18.90;1.00;;;;;;5037233;28;20210;-82
2023/08/10 09:08:31;;;;;;;3.70;2.05;;;19.10;1.00;;;;;;5033997;28;20218;-82
2023/08/10 09:10:56;;;;;;;4.28;2.40;;;19.10;1.00;;;;;;5037732;28;20195;-82
2023/08/10 09:13:23;;;;;;;4.60;2.40;;;19.30;1.00;;;;;;5018087;28;20205;-81
2023/08/10 09:16:11;;;;;;;5.25;2.50;;;19.40;1.00;;;;;;5036947;28;20187;-81
2023/08/10 09:18:43;;;;;;;6.25;2.67;;;19.40;1.00;;;;;;5037896;28;20197;-83
2023/08/10 09:21:16;;;;;;;5.80;3.15;;;19.20;1.00;;;;;;5038967;28;20191;-80
2023/08/10 09:23:44;;;;;;;3.47;2.30;;;19.10;1.00;;;;;;5054828;28;20185;-82
2023/08/10 09:26:10;;;;;;;4.15;2.60;;;19.00;1.00;;;;;;5059069;28;20170;-80
2023/08/10 09:28:39;;;;;;;5.50;2.85;;;18.80;1.00;;;;;;5043947;28;20552;-82
2023/08/10 09:31:10;;;;;;;4.18;2.83;;;18.80;1.00;;;;;;5036065;28;20179;-81
2023/08/10 09:33:36;;;;;;;5.00;2.50;;;18.90;1.00;;;;;;5020834;28;20175;-80
2023/08/10 09:36:04;;;;;;;6.13;2.92;;;18.90;1.00;;;;;;5037136;28;20715;-79
2023/08/10 09:38:29;;;;;;;6.10;3.22;;;18.90;1.00;;;;;;5028311;28;20206;-80
2023/08/10 09:41:15;;;;;;;5.53;2.75;;;19.10;1.00;;;;;;5041900;28;20187;-82
2023/08/10 09:43:43;;;;;;;5.80;3.20;;;19.40;1.00;;;;;;5041555;28;20195;-82
2023/08/10 09:46:11;;;;;;;3.35;2.47;;;19.80;1.00;;;;;;5034076;28;20183;-82
2023/08/10 09:48:38;;;;;;;4.63;2.47;;;21.80;1.00;;;;;;5039155;28;20186;-81
2023/08/10 09:51:09;;;;;;;6.82;3.03;;;20.50;1.00;;;;;;5043551;28;20551;-81
2023/08/10 09:53:36;;;;;;;4.88;2.42;;;20.70;1.00;;;;;;5037185;28;20587;-80
2023/08/10 09:56:07;;;;;;;5.13;2.30;;;21.00;1.00;;;;;;5027721;28;20190;-82
2023/08/10 09:58:33;;;;;;;5.30;2.33;;;21.00;1.00;;;;;;5024540;28;20349;-80
2023/08/10 10:00:59;;;;;;;4.93;2.80;;;20.80;1.00;;;;;;5042116;28;20194;-80
2023/08/10 10:03:29;;;;;;;4.68;2.90;;;20.60;1.00;;;;;;5040800;28;20199;-83
2023/08/10 10:05:55;;;;;;;7.55;2.83;;;20.50;1.00;;;;;;5038828;28;20202;-80
2023/08/10 10:08:23;;;;;;;8.00;2.42;;;20.30;1.00;;;;;;5022328;28;20630;-80
2023/08/10 10:10:49;;;;;;;6.93;2.60;;;20.10;1.00;;;;;;5020180;28;20281;-80
2023/08/10 10:13:15;;;;;;;3.45;1.60;;;20.20;1.00;;;;;;5036080;28;20215;-80
2023/08/10 10:15:44;;;;;;;4.57;1.65;;;20.20;1.00;;;;;;5034498;28;20183;-80
2023/08/10 10:18:11;;;;;;;1.67;1.40;;;20.60;1.00;;;;;;5037354;28;20205;-83
2023/08/10 10:20:44;;;;;;;3.55;1.35;;;20.60;1.00;;;;;;5041536;28;20174;-80
2023/08/10 10:23:18;;;;;;;3.65;2.10;;;20.80;1.00;;;;;;5038936;28;20220;-81
2023/08/10 10:26:06;;;;;;;2.50;1.70;;;20.70;1.00;;;;;;5038924;28;20269;-79
2023/08/10 10:28:33;;;;;;;2.85;1.80;;;20.60;1.00;;;;;;5056993;28;20183;-80
2023/08/10 10:31:10;;;;;;;4.95;2.03;;;20.20;1.00;;;;;;5039023;28;20498;-81
2023/08/10 10:33:38;;;;;;;3.78;1.83;;;20.10;1.00;;;;;;5038479;28;20205;-81
2023/08/10 10:36:14;;;;;;;4.40;1.58;;;20.10;1.00;;;;;;5056101;28;20178;-80
2023/08/10 10:38:56;;;;;;;3.88;1.48;;;20.40;1.00;;;;;;5057178;28;20158;-80
2023/08/10 10:41:35;;;;;;;4.15;1.77;;;20.40;1.00;;;;;;5040649;28;20636;-80
2023/08/10 10:44:04;;;;;;;5.20;1.85;;;20.40;1.00;;;;;;5039541;28;20178;-81
2023/08/10 10:46:33;;;;;;;3.95;2.10;;;20.50;1.00;;;;;;5031953;28;20177;-82
2023/08/10 10:49:06;;;;;;;5.18;1.88;;;20.40;1.00;;;;;;5020968;28;20182;-84
2023/08/10 10:51:31;;;;;;;3.40;1.70;;;20.10;1.00;;;;;;5039207;28;20696;-82
2023/08/10 10:53:57;;;;;;;5.00;1.55;;;20.10;1.00;;;;;;5020936;28;20203;-82
2023/08/10 10:56:26;;;;;;;3.72;1.67;;;20.10;1.00;;;;;;5038618;28;20175;-80
2023/08/10 10:58:52;;;;;;;2.50;1.50;;;20.10;1.00;;;;;;5022598;28;20198;-81
2023/08/10 11:01:21;;;;;;;4.03;1.63;;;20.30;1.00;;;;;;5040333;28;20473;-81
2023/08/10 11:03:54;;;;;;;3.75;1.67;;;20.50;1.00;;;;;;5023189;28;20270;-80
2023/08/10 11:06:20;;;;;;;3.13;1.42;;;20.70;1.00;;;;;;5022679;28;20186;-83
2023/08/10 11:08:51;;;;;;;2.13;1.30;;;20.90;1.00;;;;;;5021776;28;20202;-82
2023/08/10 11:11:17;;;;;;;2.85;1.52;;;21.00;1.00;;;;;;5018157;28;20178;-79
2023/08/10 11:13:43;;;;;;;2.53;1.60;;;21.10;1.00;;;;;;5017767;28;20175;-80
2023/08/10 11:16:09;;;;;;;3.50;1.42;;;21.20;1.00;;;;;;5017658;28;20179;-81
2023/08/10 11:18:37;;;;;;;5.10;1.60;;;21.30;1.00;;;;;;5022609;28;20198;-80
2023/08/10 11:21:08;;;;;;;2.50;1.30;;;21.40;1.00;;;;;;5034863;28;20673;-81
2023/08/10 11:23:35;;;;;;;3.97;1.67;;;21.50;1.00;;;;;;5016734;28;20199;-81
2023/08/10 11:26:02;;;;;;;4.05;1.20;;;21.60;1.00;;;;;;5016290;28;20175;-80
2023/08/10 11:28:28;;;;;;;3.63;1.30;;;21.70;1.00;;;;;;5017939;28;20202;-80
2023/08/10 11:31:04;;;;;;;4.80;1.30;;;21.70;1.00;;;;;;5036116;28;20195;-80
2023/08/10 11:33:30;;;;;;;4.68;1.60;;;21.50;1.00;;;;;;5035695;28;20540;-82
2023/08/10 11:35:56;;;;;;;2.70;1.50;;;21.60;1.00;;;;;;5016911;28;20201;-82
2023/08/10 11:38:22;;;;;;;4.22;1.60;;;21.30;1.00;;;;;;5017446;28;20209;-80
2023/08/10 11:40:48;;;;;;;2.97;1.35;;;21.10;1.00;;;;;;5018593;28;20183;-81
2023/08/10 11:43:15;;;;;;;2.65;1.20;;;20.80;1.00;;;;;;5018890;28;20210;-82
2023/08/10 11:45:42;;;;;;;2.78;1.38;;;20.60;1.00;;;;;;5022449;28;20254;-83
2023/08/10 11:48:10;;;;;;;2.97;1.42;;;20.50;1.00;;;;;;5021915;28;20248;-82
2023/08/10 11:50:38;;;;;;;4.22;1.48;;;20.40;99.90;;;;;;5022202;28;20171;-83
2023/08/10 11:53:19;;;;;;;2.72;1.50;;;20.40;99.90;;;;;;5041451;28;20420;-83
2023/08/10 11:55:47;;;;;;;2.70;1.30;;;20.50;1.00;;;;;;5022433;28;20232;-81
2023/08/10 11:58:14;;;;;;;3.97;1.52;;;20.70;1.00;;;;;;5026093;28;20199;-83
2023/08/10 12:00:41;;;;;;;3.60;1.58;;;21.00;1.00;;;;;;5027912;28;20217;-83
2023/08/10 12:03:16;;;;;;;3.95;1.65;;;21.30;1.00;;;;;;5022195;28;20194;-83
2023/08/10 12:06:04;;;;;;;3.67;1.63;;;21.50;99.90;;;;;;5057462;28;20258;-84
2023/08/10 12:08:35;;;;;;;2.55;1.58;;;21.60;99.90;;;;;;5052991;28;20199;-82
2023/08/10 12:11:04;;;;;;;2.53;1.48;;;21.60;1.00;;;;;;5039438;28;20471;-83
2023/08/10 12:13:31;;;;;;;3.85;1.30;;;21.50;99.90;;;;;;5039302;28;20179;-83
2023/08/10 12:16:00;;;;;;;2.88;1.50;;;21.20;99.90;;;;;;5021638;28;20180;-83
2023/08/10 12:18:26;;;;;;;2.40;1.45;;;21.20;99.90;;;;;;5021075;28;20210;-83
2023/08/10 12:20:53;;;;;;;2.80;1.25;;;21.20;99.90;;;;;;5021683;28;20179;-83
2023/08/10 12:23:20;;;;;;;2.78;1.40;;;21.30;99.90;;;;;;5038071;28;20205;-82
2023/08/10 12:25:50;;;;;;;2.97;1.33;;;21.40;99.90;;;;;;5037645;28;20670;-83
2023/08/10 12:28:18;;;;;;;4.40;1.60;;;21.50;99.90;;;;;;5026108;28;20194;-80
2023/08/10 12:30:48;;;;;;;1.85;1.30;;;21.40;99.90;;;;;;5033479;28;20691;-81
2023/08/10 12:33:14;;;;;;;6.00;1.40;;;21.50;99.90;;;;;;5033520;28;20217;-82
2023/08/10 12:35:41;;;;;;;2.80;1.60;;;21.70;99.90;;;;;;5033160;28;20209;-81
2023/08/10 12:38:07;;;;;;;3.03;1.80;;;21.70;99.90;;;;;;5034067;28;20687;-81
2023/08/10 12:40:33;;;;;;;4.18;1.40;;;21.80;99.90;;;;;;5033300;28;20274;-82
2023/08/10 12:42:59;;;;;;;2.63;1.55;;;21.80;99.90;;;;;;5034329;28;20233;-81
2023/08/10 12:45:26;;;;;;;5.03;1.40;;;21.80;99.90;;;;;;5032549;28;20179;-82
2023/08/10 12:47:52;;;;;;;2.92;1.17;;;21.70;99.90;;;;;;5032154;28;20201;-82
2023/08/10 12:50:18;;;;;;;3.20;1.35;;;21.40;99.90;;;;;;5032152;28;20244;-81
2023/08/10 12:52:46;;;;;;;4.18;1.20;;;21.70;99.90;;;;;;5031817;28;20186;-81